createdAt,value
2023-02-11T00:01:10.450Z,101608.34
2023-02-11T00:03:38.677Z,101605.16
2023-02-11T00:08:54.921Z,101612.91
2023-02-11T00:11:25.428Z,101617.03
2023-02-11T00:13:53.153Z,101609.94
2023-02-11T00:16:22.150Z,101608.22
2023-02-11T00:21:43.935Z,101585.09
2023-02-11T00:24:11.399Z,101582.16
2023-02-11T00:26:40.149Z,101599.78
2023-02-11T00:29:07.813Z,101604.00
2023-02-11T00:31:35.804Z,101600.44
2023-02-11T00:34:06.039Z,101609.50
2023-02-11T00:36:33.572Z,101617.84
2023-02-11T00:39:01.260Z,101612.66
2023-02-11T00:41:28.974Z,101608.03
2023-02-11T00:43:57.838Z,101612.38
2023-02-11T00:46:25.371Z,101588.88
2023-02-11T00:48:54.886Z,101595.44
2023-02-11T00:51:22.340Z,101608.97
2023-02-11T00:56:52.431Z,101604.75
2023-02-11T00:59:21.203Z,101618.06
2023-02-11T01:01:48.738Z,101628.22
2023-02-11T01:04:16.207Z,101627.47
2023-02-11T01:06:43.798Z,101624.63
2023-02-11T01:09:35.231Z,101617.56
2023-02-11T01:12:02.686Z,101633.59
2023-02-11T01:14:31.470Z,101625.28
2023-02-11T01:16:58.897Z,101620.00
2023-02-11T01:19:26.349Z,101623.25
2023-02-11T01:21:53.768Z,101636.66
2023-02-11T01:27:25.403Z,101633.06
2023-02-11T01:29:54.187Z,101622.19
2023-02-11T01:32:21.664Z,101621.97
2023-02-11T01:34:49.081Z,101615.81
2023-02-11T01:37:16.514Z,101609.06
2023-02-11T01:39:43.967Z,101607.59
2023-02-11T01:42:16.993Z,101601.03
2023-02-11T01:44:44.507Z,101588.28
2023-02-11T01:47:13.281Z,101588.66
2023-02-11T01:49:43.090Z,101596.75
2023-02-11T01:52:13.046Z,101598.84
2023-02-11T01:55:01.797Z,101593.13
2023-02-11T01:57:32.500Z,101591.44
2023-02-11T02:00:05.065Z,101591.88
2023-02-11T02:02:46.692Z,101593.16
2023-02-11T02:05:21.180Z,101577.00
2023-02-11T02:07:55.390Z,101581.63
2023-02-11T02:13:11.793Z,101599.06
2023-02-11T02:15:41.410Z,101591.03
2023-02-11T02:18:20.604Z,101584.78
2023-02-11T02:20:56.121Z,101592.72
2023-02-11T02:23:30.355Z,101589.88
2023-02-11T02:26:36.095Z,101580.78
2023-02-11T02:29:45.945Z,101580.53
2023-02-11T02:32:38.522Z,101572.13
2023-02-11T02:35:12.996Z,101565.38
2023-02-11T02:37:42.994Z,101556.66
2023-02-11T02:40:13.412Z,101551.09
2023-02-11T02:42:41.304Z,101547.81
2023-02-11T02:45:10.336Z,101559.22
2023-02-11T02:47:39.103Z,101555.63
2023-02-11T02:50:08.086Z,101542.84
2023-02-11T02:52:39.184Z,101555.09
2023-02-11T02:55:35.421Z,101553.31
2023-02-11T02:58:17.499Z,101564.38
2023-02-11T03:00:54.544Z,101554.44
2023-02-11T03:03:30.471Z,101551.91
2023-02-11T03:06:02.124Z,101552.34
2023-02-11T03:11:29.937Z,101544.88
2023-02-11T03:13:57.839Z,101551.81
2023-02-11T03:16:27.395Z,101550.13
2023-02-11T03:19:00.384Z,101549.28
2023-02-11T03:21:28.109Z,101546.53
2023-02-11T03:23:56.626Z,101538.31
2023-02-11T03:26:26.861Z,101535.56
2023-02-11T03:28:58.343Z,101528.69
2023-02-11T03:31:30.430Z,101522.69
2023-02-11T03:34:03.503Z,101526.38
2023-02-11T03:36:35.463Z,101541.03
2023-02-11T03:39:04.758Z,101527.22
2023-02-11T03:41:32.787Z,101521.19
2023-02-11T03:44:00.799Z,101519.28
2023-02-11T03:46:31.761Z,101509.78
2023-02-11T03:49:04.245Z,101514.84
2023-02-11T03:51:33.160Z,101505.06
2023-02-11T03:54:03.281Z,101510.66
2023-02-11T03:56:35.739Z,101510.34
2023-02-11T03:59:03.308Z,101524.34
2023-02-11T04:01:30.957Z,101533.84
2023-02-11T04:03:58.391Z,101521.94
2023-02-11T04:06:27.112Z,101522.13
2023-02-11T04:08:54.771Z,101523.84
2023-02-11T04:14:20.391Z,101524.06
2023-02-11T04:16:47.826Z,101519.19
2023-02-11T04:19:15.271Z,101516.66
2023-02-11T04:21:44.007Z,101524.69
2023-02-11T04:24:11.451Z,101524.56
2023-02-11T04:26:38.847Z,101517.94
2023-02-11T04:29:06.327Z,101522.34
2023-02-11T04:31:33.816Z,101523.84
2023-02-11T04:37:04.765Z,101512.63
2023-02-11T04:39:32.197Z,101513.63
2023-02-11T04:41:59.628Z,101521.94
2023-02-11T04:44:27.062Z,101508.44
2023-02-11T04:46:54.517Z,101523.53
2023-02-11T04:49:21.895Z,101520.78
2023-02-11T04:51:49.748Z,101511.28
2023-02-11T04:54:19.833Z,101503.88
2023-02-11T04:56:47.284Z,101506.94
2023-02-11T04:59:14.904Z,101512.44
2023-02-11T05:01:42.615Z,101506.31
2023-02-11T05:04:10.157Z,101519.50
2023-02-11T05:06:39.143Z,101522.56
2023-02-11T05:12:08.078Z,101520.88
2023-02-11T05:14:35.527Z,101514.66
2023-02-11T05:17:03.030Z,101510.78
2023-02-11T05:19:31.868Z,101507.66
2023-02-11T05:22:03.002Z,101503.78
2023-02-11T05:24:31.122Z,101511.38
2023-02-11T05:26:58.577Z,101505.06
2023-02-11T05:29:27.430Z,101508.22
2023-02-11T05:31:54.860Z,101497.31
2023-02-11T05:34:22.335Z,101497.22
2023-02-11T05:36:49.763Z,101517.72
2023-02-11T05:39:17.192Z,101502.81
2023-02-11T05:41:44.638Z,101502.50
2023-02-11T05:44:12.074Z,101496.69
2023-02-11T05:46:40.864Z,101496.47
2023-02-11T05:49:08.371Z,101499.31
2023-02-11T05:54:38.397Z,101500.19
2023-02-11T05:57:06.226Z,101510.75
2023-02-11T05:59:33.897Z,101502.31
2023-02-11T06:02:02.998Z,101503.38
2023-02-11T06:07:29.398Z,101498.19
2023-02-11T06:09:57.457Z,101494.38
2023-02-11T06:15:13.435Z,101501.25
2023-02-11T06:17:42.229Z,101505.03
2023-02-11T06:20:10.990Z,101504.44
2023-02-11T06:22:38.845Z,101507.41
2023-02-11T06:25:07.092Z,101501.44
2023-02-11T06:27:34.518Z,101513.72
2023-02-11T06:30:01.964Z,101505.28
2023-02-11T06:32:46.145Z,101500.19
2023-02-11T06:35:15.573Z,101513.59
2023-02-11T06:37:43.487Z,101504.31
2023-02-11T06:40:11.673Z,101509.78
2023-02-11T06:42:39.765Z,101505.16
2023-02-11T06:45:09.248Z,101503.97
2023-02-11T06:47:36.692Z,101503.91
2023-02-11T06:50:04.370Z,101513.28
2023-02-11T06:52:33.321Z,101509.81
2023-02-11T06:55:00.751Z,101512.25
2023-02-11T06:57:28.193Z,101518.03
2023-02-11T07:02:54.433Z,101506.41
2023-02-11T07:05:21.990Z,101516.78
2023-02-11T07:07:50.761Z,101523.84
2023-02-11T07:10:18.330Z,101519.00
2023-02-11T07:12:45.823Z,101534.41
2023-02-11T07:15:13.261Z,101527.88
2023-02-11T07:20:29.452Z,101529.88
2023-02-11T07:22:59.933Z,101533.34
2023-02-11T07:25:30.233Z,101532.63
2023-02-11T07:27:57.683Z,101517.94
2023-02-11T07:33:23.415Z,101535.34
2023-02-11T07:35:51.202Z,101545.81
2023-02-11T07:38:20.162Z,101556.75
2023-02-11T07:40:47.591Z,101544.97
2023-02-11T07:43:15.047Z,101546.63
2023-02-11T07:45:42.497Z,101550.75
2023-02-11T07:48:09.906Z,101560.16
2023-02-11T07:50:37.325Z,101553.16
2023-02-11T07:53:04.727Z,101543.88
2023-02-11T07:55:34.196Z,101550.84
2023-02-11T07:58:01.631Z,101521.47
2023-02-11T08:00:29.069Z,101533.75
2023-02-11T08:05:55.381Z,101521.69
2023-02-11T08:08:22.842Z,101539.75
2023-02-11T08:10:51.877Z,101542.41
2023-02-11T08:13:19.505Z,101548.25
2023-02-11T08:15:46.963Z,101554.94
2023-02-11T08:18:14.426Z,101562.97
2023-02-11T08:20:41.869Z,101558.03
2023-02-11T08:23:09.309Z,101556.97
2023-02-11T08:25:36.722Z,101563.19
2023-02-11T08:28:05.563Z,101565.41
2023-02-11T08:30:33.135Z,101560.47
2023-02-11T08:33:00.583Z,101571.22
2023-02-11T08:35:28.086Z,101573.66
2023-02-11T08:37:55.571Z,101562.03
2023-02-11T08:40:23.010Z,101563.75
2023-02-11T08:45:40.708Z,101572.03
2023-02-11T08:48:08.267Z,101565.19
2023-02-11T08:50:38.560Z,101574.41
2023-02-11T08:53:06.048Z,101581.47
2023-02-11T08:55:33.448Z,101579.59
2023-02-11T08:58:00.990Z,101574.78
2023-02-11T09:00:28.455Z,101584.31
2023-02-11T09:02:57.270Z,101588.47
2023-02-11T09:05:24.841Z,101593.25
2023-02-11T09:08:23.709Z,101599.66
2023-02-11T09:10:51.435Z,101606.19
2023-02-11T09:13:19.197Z,101602.69
2023-02-11T09:15:47.245Z,101607.88
2023-02-11T09:21:17.795Z,101619.47
2023-02-11T09:23:47.685Z,101613.03
2023-02-11T09:26:17.152Z,101608.44
2023-02-11T09:28:44.687Z,101603.66
2023-02-11T09:31:13.710Z,101616.16
2023-02-11T09:33:47.767Z,101623.06
2023-02-11T09:36:16.670Z,101632.16
2023-02-11T09:38:45.813Z,101641.97
2023-02-11T09:41:27.005Z,101640.09
2023-02-11T09:46:59.795Z,101631.59
2023-02-11T09:49:35.747Z,101648.59
2023-02-11T09:52:07.048Z,101644.81
2023-02-11T09:54:40.281Z,101654.88
2023-02-11T09:57:22.914Z,101659.38
2023-02-11T10:03:04.806Z,101642.19
2023-02-11T10:05:43.180Z,101654.31
2023-02-11T10:08:16.983Z,101657.41
2023-02-11T10:10:51.919Z,101653.84
2023-02-11T10:13:39.716Z,101654.09
2023-02-11T10:19:28.373Z,101666.75
2023-02-11T10:22:04.330Z,101668.47
2023-02-11T10:24:32.430Z,101667.81
2023-02-11T10:27:01.177Z,101680.94
2023-02-11T10:32:29.546Z,101686.84
2023-02-11T10:38:00.395Z,101693.72
2023-02-11T10:40:30.096Z,101695.72
2023-02-11T10:43:01.010Z,101695.44
2023-02-11T10:45:33.280Z,101690.47
2023-02-11T10:48:01.438Z,101701.50
2023-02-11T10:50:33.286Z,101691.66
2023-02-11T10:53:13.759Z,101702.34
2023-02-11T10:55:52.662Z,101702.31
2023-02-11T10:58:26.900Z,101698.50
2023-02-11T11:00:55.599Z,101698.00
2023-02-11T11:03:25.168Z,101693.22
2023-02-11T11:05:57.327Z,101694.44
2023-02-11T11:11:17.210Z,101692.56
2023-02-11T11:13:56.321Z,101694.81
2023-02-11T11:19:23.276Z,101677.56
2023-02-11T11:21:51.693Z,101683.22
2023-02-11T11:27:24.581Z,101690.72
2023-02-11T11:29:55.735Z,101694.72
2023-02-11T11:32:33.500Z,101696.63
2023-02-11T11:35:02.593Z,101696.03
2023-02-11T11:40:40.009Z,101701.72
2023-02-11T11:43:19.768Z,101701.31
2023-02-11T11:45:57.929Z,101695.34
2023-02-11T11:48:28.019Z,101694.06
2023-02-11T11:50:58.108Z,101692.66
2023-02-11T11:53:30.509Z,101687.69
2023-02-11T11:56:01.816Z,101686.53
2023-02-11T11:58:30.518Z,101696.69
2023-02-11T12:04:14.607Z,101693.63
2023-02-11T12:06:47.659Z,101686.38
2023-02-11T12:09:22.921Z,101684.41
2023-02-11T12:12:15.301Z,101679.41
2023-02-11T12:17:53.139Z,101689.44
2023-02-11T12:23:33.324Z,101681.81
2023-02-11T12:26:05.333Z,101682.47
2023-02-11T12:28:40.278Z,101679.03
2023-02-11T12:31:19.175Z,101683.25
2023-02-11T12:34:13.802Z,101681.78
2023-02-11T12:36:54.193Z,101678.72
2023-02-11T12:39:33.795Z,101683.41
2023-02-11T12:42:30.672Z,101678.81
2023-02-11T12:45:09.233Z,101683.56
2023-02-11T12:47:45.122Z,101672.47
2023-02-11T12:53:09.427Z,101676.00
2023-02-11T12:55:40.924Z,101674.22
2023-02-11T12:58:13.754Z,101683.59
2023-02-11T13:00:55.577Z,101690.22
2023-02-11T13:03:26.380Z,101696.63
2023-02-11T13:05:56.159Z,101683.94
2023-02-11T13:08:27.113Z,101691.56
2023-02-11T13:10:58.826Z,101682.13
2023-02-11T13:13:28.623Z,101687.72
2023-02-11T13:16:00.958Z,101686.13
2023-02-11T13:18:49.207Z,101687.47
2023-02-11T13:24:38.597Z,101691.19
2023-02-11T13:27:12.965Z,101685.53
2023-02-11T13:30:04.406Z,101686.88
2023-02-11T13:33:06.513Z,101685.16
2023-02-11T13:35:35.050Z,101682.50
2023-02-11T13:38:03.653Z,101690.47
2023-02-11T13:40:33.302Z,101687.19
2023-02-11T13:46:06.579Z,101681.91
2023-02-11T13:48:36.034Z,101679.00
2023-02-11T13:51:05.419Z,101682.28
2023-02-11T13:53:46.507Z,101678.63
2023-02-11T13:56:25.559Z,101679.47
2023-02-11T13:58:53.162Z,101678.41
2023-02-11T14:01:43.560Z,101677.56
2023-02-11T14:04:39.850Z,101683.22
2023-02-11T14:07:45.455Z,101689.50
2023-02-11T14:10:51.329Z,101683.59
2023-02-11T14:13:24.046Z,101684.34
2023-02-11T14:15:55.334Z,101679.59
2023-02-11T14:18:58.907Z,101679.59
2023-02-11T14:21:34.183Z,101676.47
2023-02-11T14:24:39.207Z,101672.03
2023-02-11T14:27:09.184Z,101670.47
2023-02-11T14:29:41.565Z,101675.63
2023-02-11T14:32:16.119Z,101671.53
2023-02-11T14:34:52.052Z,101669.84
2023-02-11T14:37:26.817Z,101671.41
2023-02-11T14:40:01.622Z,101671.78
2023-02-11T14:42:30.911Z,101672.88
2023-02-11T14:45:03.499Z,101666.47
2023-02-11T14:47:37.841Z,101669.84
2023-02-11T14:50:11.656Z,101670.34
2023-02-11T14:52:39.462Z,101669.59
2023-02-11T14:55:17.758Z,101677.31
2023-02-11T14:57:45.698Z,101671.41
2023-02-11T15:00:18.690Z,101685.50
2023-02-11T15:02:46.358Z,101698.91
2023-02-11T15:05:17.092Z,101699.28
2023-02-11T15:07:46.503Z,101700.84
2023-02-11T15:13:20.834Z,101716.38
2023-02-11T15:15:50.395Z,101718.69
2023-02-11T15:18:22.622Z,101724.97
2023-02-11T15:20:52.237Z,101724.47
2023-02-11T15:23:24.183Z,101735.56
2023-02-11T15:25:55.494Z,101731.47
2023-02-11T15:31:24.087Z,101725.06
2023-02-11T15:33:52.119Z,101724.59
2023-02-11T15:36:23.724Z,101734.13
2023-02-11T15:39:18.630Z,101738.56
2023-02-11T15:41:46.124Z,101733.28
2023-02-11T15:44:29.566Z,101733.50
2023-02-11T15:46:57.336Z,101733.41
2023-02-11T15:49:25.537Z,101730.53
2023-02-11T15:51:55.363Z,101735.56
2023-02-11T15:54:26.630Z,101747.63
2023-02-11T15:56:55.993Z,101751.84
2023-02-11T15:59:27.450Z,101748.47
2023-02-11T16:01:55.551Z,101747.00
2023-02-11T16:04:25.149Z,101738.81
2023-02-11T16:06:54.849Z,101745.34
2023-02-11T16:09:25.461Z,101746.28
2023-02-11T16:11:58.902Z,101741.22
2023-02-11T16:14:32.241Z,101736.63
2023-02-11T16:17:03.752Z,101745.06
2023-02-11T16:19:31.533Z,101739.19
2023-02-11T16:23:21.027Z,101744.22
2023-02-11T16:25:48.567Z,101746.84
2023-02-11T16:28:16.897Z,101749.75
2023-02-11T16:30:44.439Z,101748.41
2023-02-11T16:36:16.991Z,101771.94
2023-02-11T16:38:45.759Z,101764.09
2023-02-11T16:41:13.238Z,101774.59
2023-02-11T16:43:40.740Z,101763.47
2023-02-11T16:46:09.143Z,101775.06
2023-02-11T16:48:36.666Z,101771.81
2023-02-11T16:51:04.480Z,101776.31
2023-02-11T16:53:32.194Z,101781.38
2023-02-11T16:56:01.238Z,101774.34
2023-02-11T16:58:28.702Z,101776.16
2023-02-11T17:00:57.880Z,101783.72
2023-02-11T17:03:29.586Z,101779.50
2023-02-11T17:05:57.448Z,101778.41
2023-02-11T17:08:24.888Z,101780.59
2023-02-11T17:13:36.770Z,101774.72
2023-02-11T17:16:04.328Z,101774.06
2023-02-11T17:21:20.239Z,101780.25
2023-02-11T17:23:47.657Z,101783.53
2023-02-11T17:26:15.152Z,101784.84
2023-02-11T17:28:47.402Z,101785.31
2023-02-11T17:31:14.962Z,101782.31
2023-02-11T17:33:42.602Z,101783.72
2023-02-11T17:36:11.226Z,101783.41
2023-02-11T17:38:39.083Z,101785.94
2023-02-11T17:41:09.631Z,101789.03
2023-02-11T17:43:37.045Z,101788.13
2023-02-11T17:46:08.523Z,101795.56
2023-02-11T17:48:37.846Z,101801.13
2023-02-11T17:51:05.585Z,101807.38
2023-02-11T17:53:33.003Z,101809.19
2023-02-11T17:56:06.130Z,101801.31
2023-02-11T17:58:33.926Z,101799.03
2023-02-11T18:03:53.615Z,101812.75
2023-02-11T18:06:21.542Z,101808.69
2023-02-11T18:08:49.078Z,101817.66
2023-02-11T18:11:16.836Z,101821.91
2023-02-11T18:13:44.914Z,101822.16
2023-02-11T18:16:15.460Z,101831.81
2023-02-11T18:18:43.275Z,101846.53
2023-02-11T18:21:15.247Z,101849.56
2023-02-11T18:23:42.742Z,101849.06
2023-02-11T18:26:11.622Z,101846.28
2023-02-11T18:28:39.311Z,101841.69
2023-02-11T18:31:07.410Z,101847.28
2023-02-11T18:33:35.537Z,101847.28
2023-02-11T18:36:06.434Z,101841.84
2023-02-11T18:38:35.258Z,101846.53
2023-02-11T18:41:03.279Z,101845.53
2023-02-11T18:43:31.636Z,101838.44
2023-02-11T18:48:55.960Z,101855.41
2023-02-11T18:51:23.674Z,101865.06
2023-02-11T18:53:52.818Z,101860.81
2023-02-11T18:56:21.944Z,101861.09
2023-02-11T18:58:51.223Z,101861.22
2023-02-11T19:01:20.672Z,101857.75
2023-02-11T19:03:48.242Z,101854.13
2023-02-11T19:06:17.307Z,101869.63
2023-02-11T19:08:44.832Z,101873.56
2023-02-11T19:11:15.990Z,101874.22
2023-02-11T19:13:43.392Z,101881.44
2023-02-11T19:16:12.352Z,101888.47
2023-02-11T19:18:39.786Z,101883.28
2023-02-11T19:21:08.663Z,101884.47
2023-02-11T19:23:36.525Z,101891.91
2023-02-11T19:26:06.222Z,101885.09
2023-02-11T19:28:36.896Z,101893.25
2023-02-11T19:31:08.402Z,101901.00
2023-02-11T19:33:36.020Z,101914.56
2023-02-11T19:36:05.406Z,101908.72
2023-02-11T19:38:33.360Z,101912.50
2023-02-11T19:41:00.873Z,101901.53
2023-02-11T19:43:28.514Z,101903.50
2023-02-11T19:45:57.503Z,101895.91
2023-02-11T19:48:25.559Z,101907.28
2023-02-11T19:50:53.243Z,101902.53
2023-02-11T19:56:20.798Z,101918.34
2023-02-11T19:58:48.491Z,101925.34
2023-02-11T20:01:19.363Z,101919.59
2023-02-11T20:03:50.172Z,101925.31
2023-02-11T20:06:20.131Z,101926.88
2023-02-11T20:08:47.647Z,101918.75
2023-02-11T20:11:16.748Z,101919.19
2023-02-11T20:13:44.567Z,101925.13
2023-02-11T20:16:16.444Z,101917.28
2023-02-11T20:21:49.006Z,101917.91
2023-02-11T20:24:16.658Z,101913.72
2023-02-11T20:26:45.082Z,101915.34
2023-02-11T20:32:11.613Z,101930.59
2023-02-11T20:34:39.124Z,101923.81
2023-02-11T20:37:08.202Z,101930.50
2023-02-11T20:39:37.150Z,101937.75
2023-02-11T20:42:04.822Z,101933.75
2023-02-11T20:44:32.269Z,101942.63
2023-02-11T20:46:59.703Z,101941.94
2023-02-11T20:49:28.191Z,101935.59
2023-02-11T20:54:41.148Z,101944.75
2023-02-11T20:57:08.552Z,101943.84
2023-02-11T20:59:35.957Z,101952.25
2023-02-11T21:02:03.831Z,101952.72
2023-02-11T21:04:32.527Z,101948.75
2023-02-11T21:07:02.689Z,101955.63
2023-02-11T21:09:33.043Z,101962.34
2023-02-11T21:15:07.445Z,101964.22
2023-02-11T21:17:34.835Z,101970.06
2023-02-11T21:20:02.264Z,101971.28
2023-02-11T21:22:29.680Z,101962.06
2023-02-11T21:24:57.113Z,101969.63
2023-02-11T21:27:31.140Z,101974.78
2023-02-11T21:33:02.023Z,101974.34
2023-02-11T21:35:29.535Z,101975.25
2023-02-11T21:37:56.981Z,101977.09
2023-02-11T21:43:24.826Z,101984.53
2023-02-11T21:45:52.480Z,101982.84
2023-02-11T21:48:21.420Z,101977.81
2023-02-11T21:50:49.480Z,101979.47
2023-02-11T21:53:16.894Z,101979.91
2023-02-11T21:55:44.494Z,101990.69
2023-02-11T21:58:12.419Z,101999.09
2023-02-11T22:03:45.231Z,101998.34
2023-02-11T22:06:14.816Z,102004.03
2023-02-11T22:08:42.483Z,102012.41
2023-02-11T22:11:12.641Z,102010.56
2023-02-11T22:16:42.290Z,102006.41
2023-02-11T22:19:11.078Z,102001.47
2023-02-11T22:24:30.315Z,102010.63
2023-02-11T22:26:57.757Z,102022.59
2023-02-11T22:29:25.163Z,102023.81
2023-02-11T22:31:52.832Z,102022.22
2023-02-11T22:37:28.060Z,102027.28
2023-02-11T22:39:55.443Z,102021.53
2023-02-11T22:42:23.369Z,102030.13
2023-02-11T22:45:28.177Z,102031.44
2023-02-11T22:47:55.622Z,102040.31
2023-02-11T22:50:23.048Z,102046.81
2023-02-11T22:52:51.760Z,102050.09
2023-02-11T22:55:19.175Z,102050.16
2023-02-11T22:57:46.606Z,102047.84
2023-02-11T23:00:15.760Z,102053.69
2023-02-11T23:02:43.242Z,102043.38
2023-02-11T23:05:10.660Z,102055.75
2023-02-11T23:07:38.160Z,102047.16
2023-02-11T23:10:08.233Z,102058.81
2023-02-11T23:12:35.663Z,102062.94
2023-02-11T23:15:05.017Z,102062.25
2023-02-11T23:17:32.723Z,102065.47
2023-02-11T23:22:48.238Z,102056.28
2023-02-11T23:25:17.256Z,102064.50
2023-02-11T23:27:44.695Z,102060.81
2023-02-11T23:30:13.205Z,102065.16
2023-02-11T23:32:40.785Z,102065.88
2023-02-11T23:35:08.606Z,102060.28
2023-02-11T23:37:36.011Z,102061.97
2023-02-11T23:40:03.421Z,102068.59
2023-02-11T23:42:32.162Z,102075.13
2023-02-11T23:44:59.643Z,102063.25
2023-02-11T23:47:27.052Z,102061.47
2023-02-11T23:49:54.453Z,102063.38
2023-02-11T23:52:21.940Z,102061.44
2023-02-11T23:54:49.374Z,102067.44
2023-02-11T23:57:16.794Z,102061.94
